createdAt,value
2019-03-26T00:00:15.916Z,102215.21
2019-03-26T00:02:45.255Z,102210.31
2019-03-26T00:05:14.310Z,102215.36
2019-03-26T00:07:43.356Z,102219.81
2019-03-26T00:10:12.418Z,102222.66
2019-03-26T00:12:41.740Z,102215.52
2019-03-26T00:15:10.867Z,102218.17
2019-03-26T00:17:39.997Z,102218.62
2019-03-26T00:20:09.070Z,102222.25
2019-03-26T00:22:38.464Z,102222.89
2019-03-26T00:25:07.508Z,102224.87
2019-03-26T00:27:36.571Z,102221.20
2019-03-26T00:30:06.066Z,102218.62
2019-03-26T00:32:35.160Z,102213.86
2019-03-26T00:35:04.216Z,102228.62
2019-03-26T00:37:33.276Z,102220.53
2019-03-26T00:40:02.306Z,102216.22
2019-03-26T00:42:31.339Z,102216.93
2019-03-26T00:45:00.434Z,102228.16
2019-03-26T00:47:29.496Z,102222.47
2019-03-26T00:49:58.530Z,102227.49
2019-03-26T00:52:27.581Z,102235.84
2019-03-26T00:54:56.635Z,102228.95
2019-03-26T00:57:25.686Z,102220.87
2019-03-26T00:59:55.038Z,102226.70
2019-03-26T01:02:24.112Z,102220.59
2019-03-26T01:04:53.142Z,102215.39
2019-03-26T01:07:22.206Z,102217.23
2019-03-26T01:09:51.257Z,102219.48
2019-03-26T01:12:20.325Z,102230.66
2019-03-26T01:14:49.374Z,102218.54
2019-03-26T01:17:18.428Z,102219.11
2019-03-26T01:19:47.460Z,102222.14
2019-03-26T01:22:16.504Z,102216.37
2019-03-26T01:24:45.556Z,102227.34
2019-03-26T01:27:14.602Z,102225.06
2019-03-26T01:29:43.898Z,102225.17
2019-03-26T01:32:13.243Z,102217.98
2019-03-26T01:34:46.115Z,102222.63
2019-03-26T01:37:13.183Z,102222.84
2019-03-26T01:39:42.350Z,102220.27
2019-03-26T01:42:11.426Z,102221.20
2019-03-26T01:44:40.481Z,102219.03
2019-03-26T01:47:09.524Z,102221.20
2019-03-26T01:49:38.560Z,102218.20
2019-03-26T01:52:07.598Z,102234.67
2019-03-26T01:54:36.625Z,102216.93
2019-03-26T01:57:05.687Z,102213.60
2019-03-26T01:59:34.735Z,102216.86
2019-03-26T02:02:04.202Z,102208.03
2019-03-26T02:04:33.500Z,102208.47
2019-03-26T02:07:02.534Z,102210.05
2019-03-26T02:09:31.553Z,102206.83
2019-03-26T02:12:01.250Z,102216.00
2019-03-26T02:14:30.321Z,102205.33
2019-03-26T02:16:59.363Z,102206.05
2019-03-26T02:19:28.405Z,102200.91
2019-03-26T02:21:57.428Z,102202.22
2019-03-26T02:24:26.446Z,102199.56
2019-03-26T02:26:55.493Z,102194.55
2019-03-26T02:29:24.533Z,102199.03
2019-03-26T02:31:53.593Z,102195.75
2019-03-26T02:34:22.615Z,102194.33
2019-03-26T02:36:52.755Z,102188.52
2019-03-26T02:39:21.865Z,102190.55
2019-03-26T02:41:50.975Z,102196.09
2019-03-26T02:44:20.034Z,102188.63
2019-03-26T02:46:49.343Z,102193.23
2019-03-26T02:49:18.425Z,102187.09
2019-03-26T02:51:47.739Z,102194.92
2019-03-26T02:54:17.045Z,102193.16
2019-03-26T02:56:46.089Z,102196.98
2019-03-26T02:59:15.105Z,102201.73
2019-03-26T03:01:44.156Z,102188.71
2019-03-26T03:04:13.211Z,102191.30
2019-03-26T03:06:42.546Z,102198.11
2019-03-26T03:09:11.579Z,102195.26
2019-03-26T03:11:40.609Z,102195.59
2019-03-26T03:14:09.643Z,102197.24
2019-03-26T03:16:38.702Z,102190.20
2019-03-26T03:19:07.726Z,102188.97
2019-03-26T03:21:36.760Z,102180.58
2019-03-26T03:24:05.841Z,102172.57
2019-03-26T03:26:34.875Z,102168.94
2019-03-26T03:29:03.934Z,102183.63
2019-03-26T03:31:32.966Z,102177.78
2019-03-26T03:34:02.269Z,102180.36
2019-03-26T03:36:32.079Z,102177.14
2019-03-26T03:39:01.120Z,102176.39
2019-03-26T03:41:30.193Z,102164.04
2019-03-26T03:43:59.225Z,102171.05
2019-03-26T03:46:28.274Z,102166.92
2019-03-26T03:48:57.311Z,102167.45
2019-03-26T03:51:26.462Z,102166.89
2019-03-26T03:53:55.546Z,102163.25
2019-03-26T03:56:25.084Z,102162.47
2019-03-26T03:58:54.091Z,102159.63
2019-03-26T04:01:23.137Z,102161.86
2019-03-26T04:03:52.189Z,102163.16
2019-03-26T04:06:21.227Z,102162.74
2019-03-26T04:08:50.409Z,102159.34
2019-03-26T04:11:19.442Z,102161.39
2019-03-26T04:13:48.514Z,102149.55
2019-03-26T04:16:17.555Z,102148.75
2019-03-26T04:18:46.588Z,102152.28
2019-03-26T04:21:15.613Z,102152.94
2019-03-26T04:23:44.648Z,102154.06
2019-03-26T04:26:13.709Z,102153.55
2019-03-26T04:28:42.776Z,102149.22
2019-03-26T04:31:11.823Z,102149.05
2019-03-26T04:33:40.883Z,102164.16
2019-03-26T04:36:24.582Z,102160.34
2019-03-26T04:38:40.705Z,102161.47
2019-03-26T04:41:09.813Z,102151.09
2019-03-26T04:43:38.858Z,102140.14
2019-03-26T04:46:07.884Z,102136.25
2019-03-26T04:48:36.920Z,102147.96
2019-03-26T04:51:05.953Z,102153.73
2019-03-26T04:53:34.992Z,102158.11
2019-03-26T04:56:04.036Z,102156.49
2019-03-26T04:58:33.071Z,102149.31
2019-03-26T05:01:02.191Z,102154.88
2019-03-26T05:03:31.213Z,102149.05
2019-03-26T05:06:00.256Z,102155.14
2019-03-26T05:08:29.294Z,102146.78
2019-03-26T05:10:58.329Z,102147.87
2019-03-26T05:13:27.356Z,102149.27
2019-03-26T05:15:56.400Z,102140.31
2019-03-26T05:18:25.438Z,102151.17
2019-03-26T05:20:54.495Z,102146.37
2019-03-26T05:23:23.547Z,102146.00
2019-03-26T05:25:53.319Z,102146.09
2019-03-26T05:28:22.716Z,102149.34
2019-03-26T05:30:51.753Z,102147.50
2019-03-26T05:33:20.810Z,102143.14
2019-03-26T05:35:51.620Z,102153.23
2019-03-26T05:38:20.613Z,102158.21
2019-03-26T05:40:49.914Z,102135.30
2019-03-26T05:43:19.006Z,102153.97
2019-03-26T05:45:48.310Z,102147.77
2019-03-26T05:48:17.455Z,102144.63
2019-03-26T05:50:46.507Z,102146.14
2019-03-26T05:53:15.825Z,102153.66
2019-03-26T05:55:44.893Z,102148.25
2019-03-26T05:58:14.003Z,102139.66
2019-03-26T06:00:43.113Z,102141.20
2019-03-26T06:03:12.226Z,102139.39
2019-03-26T06:05:41.285Z,102140.58
2019-03-26T06:08:10.417Z,102145.33
2019-03-26T06:10:39.457Z,102143.88
2019-03-26T06:13:08.577Z,102139.98
2019-03-26T06:15:37.686Z,102140.38
2019-03-26T06:18:06.869Z,102141.23
2019-03-26T06:20:35.937Z,102140.27
2019-03-26T06:23:05.653Z,102140.06
2019-03-26T06:25:34.682Z,102135.03
2019-03-26T06:28:03.807Z,102139.08
2019-03-26T06:30:32.844Z,102135.73
2019-03-26T06:33:02.240Z,102130.28
2019-03-26T06:35:31.264Z,102130.07
2019-03-26T06:38:00.319Z,102131.77
2019-03-26T06:40:29.353Z,102123.16
2019-03-26T06:42:58.494Z,102123.44
2019-03-26T06:45:27.930Z,102139.65
2019-03-26T06:47:57.063Z,102120.12
2019-03-26T06:50:26.236Z,102116.34
2019-03-26T06:52:55.739Z,102119.03
2019-03-26T06:55:24.872Z,102123.16
2019-03-26T06:57:54.008Z,102118.05
2019-03-26T07:00:30.811Z,102122.16
2019-03-26T07:03:01.281Z,102126.55
2019-03-26T07:05:30.445Z,102117.20
2019-03-26T07:07:59.435Z,102113.20
2019-03-26T07:10:28.789Z,102137.45
2019-03-26T07:12:58.316Z,102128.07
2019-03-26T07:15:27.421Z,102142.36
2019-03-26T07:17:56.551Z,102135.40
2019-03-26T07:20:25.584Z,102127.64
2019-03-26T07:22:54.723Z,102144.08
2019-03-26T07:25:23.920Z,102135.23
2019-03-26T07:27:52.965Z,102134.53
2019-03-26T07:30:39.233Z,102136.80
2019-03-26T07:33:08.293Z,102134.44
2019-03-26T07:35:37.367Z,102133.38
2019-03-26T07:38:06.519Z,102132.95
2019-03-26T07:40:35.861Z,102133.25
2019-03-26T07:43:05.212Z,102150.30
2019-03-26T07:45:34.325Z,102130.98
2019-03-26T07:48:03.501Z,102135.45
2019-03-26T07:50:32.851Z,102135.52
2019-03-26T07:53:01.904Z,102138.16
2019-03-26T07:55:31.024Z,102133.51
2019-03-26T07:58:00.158Z,102134.11
2019-03-26T08:00:38.702Z,102152.20
2019-03-26T08:03:08.019Z,102130.47
2019-03-26T08:05:37.389Z,102135.02
2019-03-26T08:08:06.537Z,102130.97
2019-03-26T08:10:35.749Z,102136.91
2019-03-26T08:13:04.793Z,102130.53
2019-03-26T08:15:33.950Z,102133.70
2019-03-26T08:18:02.970Z,102128.06
2019-03-26T08:20:32.117Z,102118.98
2019-03-26T08:23:01.155Z,102111.41
2019-03-26T08:25:30.286Z,102105.08
2019-03-26T08:27:59.409Z,102103.64
2019-03-26T08:30:28.465Z,102100.66
2019-03-26T08:32:57.516Z,102094.34
2019-03-26T08:35:26.698Z,102109.21
2019-03-26T08:37:55.719Z,102098.45
2019-03-26T08:40:25.190Z,102089.44
2019-03-26T08:42:54.381Z,102077.48
2019-03-26T08:45:23.462Z,102085.18
2019-03-26T08:47:52.902Z,102086.33
2019-03-26T08:50:21.937Z,102064.27
2019-03-26T08:52:51.154Z,102089.14
2019-03-26T08:55:20.354Z,102073.58
2019-03-26T08:57:49.476Z,102079.72
2019-03-26T09:00:18.814Z,102084.34
2019-03-26T09:02:47.948Z,102076.91
2019-03-26T09:05:17.060Z,102090.84
2019-03-26T09:07:46.413Z,102096.84
2019-03-26T09:10:16.724Z,102107.08
2019-03-26T09:12:46.304Z,102119.31
2019-03-26T09:15:15.619Z,102131.45
2019-03-26T09:17:44.973Z,102126.38
2019-03-26T09:20:14.206Z,102127.14
2019-03-26T09:22:43.249Z,102141.57
2019-03-26T09:25:12.377Z,102124.59
2019-03-26T09:27:41.508Z,102125.78
2019-03-26T09:30:10.664Z,102119.31
2019-03-26T09:32:39.945Z,102106.69
2019-03-26T09:35:09.193Z,102114.20
2019-03-26T09:37:38.500Z,102124.23
2019-03-26T09:40:08.153Z,102128.25
2019-03-26T09:42:37.382Z,102114.73
2019-03-26T09:45:07.532Z,102122.42
2019-03-26T09:47:36.670Z,102118.12
2019-03-26T09:50:06.411Z,102117.26
2019-03-26T09:52:35.535Z,102125.48
2019-03-26T09:55:04.973Z,102127.55
2019-03-26T09:57:34.097Z,102114.41
2019-03-26T10:00:03.184Z,102116.45
2019-03-26T10:02:32.308Z,102114.31
2019-03-26T10:05:01.358Z,102112.36
2019-03-26T10:07:30.570Z,102115.81
2019-03-26T10:09:59.684Z,102119.86
2019-03-26T10:12:28.791Z,102124.94
2019-03-26T10:14:57.820Z,102134.44
2019-03-26T10:17:27.190Z,102126.98
2019-03-26T10:19:56.327Z,102128.13
2019-03-26T10:22:25.788Z,102126.69
2019-03-26T10:24:54.924Z,102121.48
2019-03-26T10:27:24.037Z,102133.86
2019-03-26T10:29:53.122Z,102133.86
2019-03-26T10:32:22.231Z,102132.59
2019-03-26T10:34:51.267Z,102126.77
2019-03-26T10:37:20.408Z,102136.84
2019-03-26T10:39:49.465Z,102132.43
2019-03-26T10:42:18.593Z,102136.16
2019-03-26T10:44:47.704Z,102138.73
2019-03-26T10:47:16.812Z,102132.25
2019-03-26T10:49:45.975Z,102126.23
2019-03-26T10:52:15.068Z,102122.08
2019-03-26T10:54:44.957Z,102116.34
2019-03-26T10:57:14.015Z,102117.14
2019-03-26T10:59:43.141Z,102114.37
2019-03-26T11:02:12.335Z,102123.47
2019-03-26T11:04:41.463Z,102122.67
2019-03-26T11:07:10.595Z,102116.56
2019-03-26T11:09:39.713Z,102114.56
2019-03-26T11:12:08.782Z,102109.05
2019-03-26T11:14:37.804Z,102107.71
2019-03-26T11:17:06.857Z,102102.60
2019-03-26T11:19:35.992Z,102112.06
2019-03-26T11:22:05.066Z,102106.00
2019-03-26T11:24:34.121Z,102114.02
2019-03-26T11:27:03.436Z,102110.05
2019-03-26T11:29:32.556Z,102104.64
2019-03-26T11:32:01.617Z,102106.03
2019-03-26T11:34:30.741Z,102095.87
2019-03-26T11:36:59.884Z,102102.42
2019-03-26T11:39:32.966Z,102104.72
2019-03-26T11:41:59.893Z,102117.18
2019-03-26T11:44:28.960Z,102100.72
2019-03-26T11:46:58.316Z,102114.69
2019-03-26T11:49:27.348Z,102123.47
2019-03-26T11:51:56.449Z,102130.47
2019-03-26T11:54:25.807Z,102128.50
2019-03-26T11:56:54.928Z,102134.41
2019-03-26T11:59:24.156Z,102125.98
2019-03-26T12:01:53.205Z,102123.34
2019-03-26T12:04:22.228Z,102124.00
2019-03-26T12:06:51.251Z,102116.67
2019-03-26T12:09:20.319Z,102125.03
2019-03-26T12:11:50.911Z,102135.03
2019-03-26T12:14:19.960Z,102132.58
2019-03-26T12:16:49.077Z,102138.55
2019-03-26T12:19:18.235Z,102150.20
2019-03-26T12:21:47.292Z,102151.42
2019-03-26T12:24:16.428Z,102156.30
2019-03-26T12:26:45.518Z,102140.73
2019-03-26T12:29:14.635Z,102148.27
2019-03-26T12:31:43.877Z,102145.61
2019-03-26T12:34:13.001Z,102140.28
2019-03-26T12:36:42.093Z,102129.93
2019-03-26T12:39:11.186Z,102136.60
2019-03-26T12:41:40.292Z,102133.04
2019-03-26T12:44:09.361Z,102136.23
2019-03-26T12:46:38.489Z,102139.59
2019-03-26T12:49:07.570Z,102140.41
2019-03-26T12:51:39.173Z,102143.36
2019-03-26T12:54:07.534Z,102164.70
2019-03-26T12:56:36.646Z,102161.50
2019-03-26T12:59:05.693Z,102163.23
2019-03-26T13:01:34.817Z,102175.39
2019-03-26T13:04:12.569Z,102167.57
2019-03-26T13:06:34.615Z,102165.97
2019-03-26T13:09:05.125Z,102159.87
2019-03-26T13:11:34.250Z,102157.61
2019-03-26T13:14:03.641Z,102157.16
2019-03-26T13:16:32.766Z,102170.64
2019-03-26T13:19:01.909Z,102168.75
2019-03-26T13:21:31.036Z,102177.10
2019-03-26T13:24:00.105Z,102171.54
2019-03-26T13:26:29.189Z,102170.30
2019-03-26T13:28:58.247Z,102166.32
2019-03-26T13:31:27.312Z,102168.90
2019-03-26T13:33:56.682Z,102167.82
2019-03-26T13:36:25.708Z,102163.50
2019-03-26T13:38:55.194Z,102186.50
2019-03-26T13:41:24.224Z,102175.98
2019-03-26T13:43:53.264Z,102177.07
2019-03-26T13:46:22.297Z,102178.25
2019-03-26T13:48:51.456Z,102171.69
2019-03-26T13:51:20.497Z,102181.32
2019-03-26T13:53:49.908Z,102185.90
2019-03-26T13:56:19.331Z,102182.42
2019-03-26T13:58:48.693Z,102184.02
2019-03-26T14:01:17.801Z,102188.51
2019-03-26T14:03:46.825Z,102191.32
2019-03-26T14:06:15.882Z,102200.66
2019-03-26T14:08:44.940Z,102198.61
2019-03-26T14:11:13.960Z,102197.23
2019-03-26T14:13:43.029Z,102204.48
2019-03-26T14:16:12.142Z,102195.47
2019-03-26T14:18:41.200Z,102195.31
2019-03-26T14:21:10.252Z,102198.16
2019-03-26T14:23:39.390Z,102199.91
2019-03-26T14:26:08.420Z,102199.70
2019-03-26T14:28:37.550Z,102197.30
2019-03-26T14:31:06.673Z,102218.12
2019-03-26T14:33:35.714Z,102215.60
2019-03-26T14:36:04.833Z,102215.56
2019-03-26T14:38:33.956Z,102222.69
2019-03-26T14:41:03.169Z,102232.54
2019-03-26T14:43:32.196Z,102238.07
2019-03-26T14:46:01.296Z,102223.89
2019-03-26T14:48:31.222Z,102210.95
2019-03-26T14:51:00.416Z,102229.87
2019-03-26T14:53:29.619Z,102219.72
2019-03-26T14:55:58.656Z,102214.35
2019-03-26T14:58:27.711Z,102218.89
2019-03-26T15:00:59.592Z,102213.52
2019-03-26T15:03:27.614Z,102224.45
2019-03-26T15:05:56.915Z,102216.66
2019-03-26T15:08:25.963Z,102212.02
2019-03-26T15:11:07.514Z,102216.28
2019-03-26T15:13:25.850Z,102220.64
2019-03-26T15:15:54.983Z,102211.83
2019-03-26T15:18:24.026Z,102211.88
2019-03-26T15:20:53.158Z,102213.66
2019-03-26T15:23:22.223Z,102216.51
2019-03-26T15:25:51.353Z,102221.30
2019-03-26T15:28:20.472Z,102221.66
2019-03-26T15:30:49.584Z,102225.36
2019-03-26T15:33:18.708Z,102224.66
2019-03-26T15:35:47.843Z,102219.27
2019-03-26T15:38:16.988Z,102226.63
2019-03-26T15:40:46.221Z,102228.05
2019-03-26T15:43:15.519Z,102231.58
2019-03-26T15:45:44.553Z,102234.91
2019-03-26T15:48:14.134Z,102236.59
2019-03-26T15:50:44.361Z,102237.09
2019-03-26T15:53:13.623Z,102251.31
2019-03-26T15:55:42.690Z,102243.77
2019-03-26T15:58:11.824Z,102235.73
2019-03-26T16:00:40.864Z,102242.49
2019-03-26T16:03:09.981Z,102250.55
2019-03-26T16:05:39.297Z,102251.75
2019-03-26T16:08:08.528Z,102254.98
2019-03-26T16:10:37.611Z,102254.06
2019-03-26T16:13:06.798Z,102250.92
2019-03-26T16:15:44.033Z,102258.72
2019-03-26T16:18:06.770Z,102259.30
2019-03-26T16:20:35.954Z,102261.23
2019-03-26T16:23:05.149Z,102263.71
2019-03-26T16:25:34.284Z,102266.05
2019-03-26T16:28:03.437Z,102276.26
2019-03-26T16:30:34.602Z,102272.33
2019-03-26T16:33:03.792Z,102270.75
2019-03-26T16:35:32.849Z,102279.92
2019-03-26T16:38:01.968Z,102278.11
2019-03-26T16:40:31.366Z,102278.76
2019-03-26T16:43:00.419Z,102274.77
2019-03-26T16:45:29.469Z,102274.92
2019-03-26T16:47:58.531Z,102284.44
2019-03-26T16:50:27.611Z,102286.28
2019-03-26T16:52:56.743Z,102286.99
2019-03-26T16:55:25.762Z,102294.27
2019-03-26T16:57:55.404Z,102288.34
2019-03-26T17:00:34.520Z,102290.61
2019-03-26T17:03:03.576Z,102288.66
2019-03-26T17:05:32.678Z,102284.23
2019-03-26T17:08:01.961Z,102282.94
2019-03-26T17:10:31.149Z,102282.17
2019-03-26T17:13:00.829Z,102291.14
2019-03-26T17:15:29.957Z,102296.17
2019-03-26T17:17:59.664Z,102291.36
2019-03-26T17:20:28.758Z,102286.50
2019-03-26T17:22:57.873Z,102282.02
2019-03-26T17:25:27.065Z,102284.94
2019-03-26T17:27:56.127Z,102287.52
2019-03-26T17:30:25.172Z,102293.04
2019-03-26T17:32:54.310Z,102282.45
2019-03-26T17:35:23.428Z,102287.58
2019-03-26T17:37:59.488Z,102286.88
2019-03-26T17:40:23.500Z,102288.50
2019-03-26T17:42:52.579Z,102289.20
2019-03-26T17:45:21.619Z,102288.98
2019-03-26T17:47:50.655Z,102293.75
2019-03-26T17:50:19.718Z,102296.17
2019-03-26T17:52:48.757Z,102304.41
2019-03-26T17:55:17.851Z,102300.30
2019-03-26T17:57:46.928Z,102304.13
2019-03-26T18:00:17.871Z,102297.45
2019-03-26T18:02:46.938Z,102302.36
2019-03-26T18:05:28.958Z,102304.63
2019-03-26T18:07:58.380Z,102308.30
2019-03-26T18:10:27.421Z,102316.28
2019-03-26T18:12:56.541Z,102325.09
2019-03-26T18:15:25.671Z,102327.59
2019-03-26T18:17:54.696Z,102339.73
2019-03-26T18:20:32.615Z,102334.45
2019-03-26T18:22:54.646Z,102336.39
2019-03-26T18:25:23.687Z,102327.80
2019-03-26T18:27:52.813Z,102325.73
2019-03-26T18:30:21.868Z,102339.14
2019-03-26T18:32:50.932Z,102341.29
2019-03-26T18:35:20.065Z,102343.35
2019-03-26T18:37:49.196Z,102341.52
2019-03-26T18:40:18.323Z,102353.03
2019-03-26T18:42:47.807Z,102353.03
2019-03-26T18:45:16.846Z,102352.66
2019-03-26T18:47:45.972Z,102359.34
2019-03-26T18:50:16.276Z,102367.18
2019-03-26T18:52:45.316Z,102375.72
2019-03-26T18:55:14.457Z,102379.94
2019-03-26T18:57:43.604Z,102372.48
2019-03-26T19:00:13.129Z,102378.96
2019-03-26T19:02:42.155Z,102376.48
2019-03-26T19:05:11.209Z,102375.50
2019-03-26T19:07:40.326Z,102381.67
2019-03-26T19:10:25.581Z,102387.24
2019-03-26T19:12:57.166Z,102385.03
2019-03-26T19:15:25.769Z,102379.91
2019-03-26T19:17:55.219Z,102381.69
2019-03-26T19:20:24.340Z,102382.55
2019-03-26T19:22:53.463Z,102381.41
2019-03-26T19:25:22.581Z,102385.23
2019-03-26T19:27:51.613Z,102389.51
2019-03-26T19:30:20.734Z,102389.73
2019-03-26T19:32:49.787Z,102394.92
2019-03-26T19:35:18.847Z,102396.98
2019-03-26T19:37:48.591Z,102392.07
2019-03-26T19:40:17.631Z,102384.45
2019-03-26T19:42:46.655Z,102392.70
2019-03-26T19:45:15.726Z,102397.61
2019-03-26T19:47:44.788Z,102400.88
2019-03-26T19:50:14.290Z,102403.02
2019-03-26T19:52:43.405Z,102401.07
2019-03-26T19:55:12.744Z,102404.41
2019-03-26T19:57:41.813Z,102402.58
2019-03-26T20:00:12.149Z,102407.62
2019-03-26T20:02:41.191Z,102403.67
2019-03-26T20:05:11.022Z,102397.53
2019-03-26T20:07:40.092Z,102403.77
2019-03-26T20:10:10.067Z,102411.88
2019-03-26T20:12:39.517Z,102228.12
2019-03-26T20:15:08.996Z,102412.77
2019-03-26T20:17:38.051Z,102408.91
2019-03-26T20:20:07.848Z,102406.32
2019-03-26T20:22:36.882Z,102404.73
2019-03-26T20:25:05.990Z,102405.96
2019-03-26T20:27:35.057Z,102408.73
2019-03-26T20:30:04.168Z,102412.70
2019-03-26T20:32:33.197Z,102421.66
2019-03-26T20:35:02.619Z,102421.11
2019-03-26T20:37:32.001Z,102340.31
2019-03-26T20:40:01.460Z,102417.30
2019-03-26T20:42:30.514Z,102426.58
2019-03-26T20:44:59.908Z,102428.68
2019-03-26T20:47:29.075Z,102434.22
2019-03-26T20:49:58.208Z,102443.83
2019-03-26T20:52:27.409Z,102448.01
2019-03-26T20:54:56.464Z,102449.59
2019-03-26T20:57:25.520Z,102454.80
2019-03-26T20:59:54.577Z,102457.17
2019-03-26T21:02:23.631Z,102466.14
2019-03-26T21:04:52.668Z,102467.91
2019-03-26T21:07:22.017Z,102468.89
2019-03-26T21:09:51.146Z,102465.69
2019-03-26T21:12:20.321Z,102465.25
2019-03-26T21:14:49.364Z,102469.09
2019-03-26T21:17:18.452Z,102468.00
2019-03-26T21:19:47.603Z,102462.75
2019-03-26T21:22:16.895Z,102471.78
2019-03-26T21:24:45.980Z,102471.98
2019-03-26T21:27:15.029Z,102466.41
2019-03-26T21:29:44.118Z,102462.23
2019-03-26T21:32:13.223Z,102477.73
2019-03-26T21:34:42.441Z,102465.06
2019-03-26T21:37:11.529Z,102467.76
2019-03-26T21:39:40.565Z,102466.63
2019-03-26T21:42:10.009Z,102473.46
2019-03-26T21:44:39.098Z,102472.33
2019-03-26T21:47:08.119Z,102465.48
2019-03-26T21:49:37.173Z,102473.36
2019-03-26T21:52:06.211Z,102473.16
2019-03-26T21:54:35.342Z,102473.83
2019-03-26T21:57:04.402Z,102471.61
2019-03-26T21:59:33.449Z,102472.25
2019-03-26T22:02:02.588Z,102481.17
2019-03-26T22:04:31.643Z,102483.17
2019-03-26T22:07:00.698Z,102483.77
2019-03-26T22:09:29.842Z,102488.15
2019-03-26T22:11:58.900Z,102487.36
2019-03-26T22:14:27.990Z,102488.00
2019-03-26T22:16:57.048Z,102495.73
2019-03-26T22:19:28.889Z,102498.14
2019-03-26T22:21:56.902Z,102496.38
2019-03-26T22:24:25.940Z,102500.59
2019-03-26T22:26:55.258Z,102502.86
2019-03-26T22:29:24.329Z,102500.42
2019-03-26T22:31:56.246Z,102504.21
2019-03-26T22:34:25.276Z,102503.95
2019-03-26T22:36:54.316Z,102508.06
2019-03-26T22:39:23.373Z,102508.28
2019-03-26T22:41:55.328Z,102512.41
2019-03-26T22:44:31.217Z,102516.80
2019-03-26T22:46:55.136Z,102525.42
2019-03-26T22:49:24.194Z,102524.08
2019-03-26T22:51:53.242Z,102526.62
2019-03-26T22:54:22.337Z,102527.83
2019-03-26T22:56:51.668Z,102530.34
2019-03-26T22:59:20.992Z,102530.56
2019-03-26T23:01:52.533Z,102535.97
2019-03-26T23:04:20.937Z,102542.27
2019-03-26T23:06:50.087Z,102546.73
2019-03-26T23:09:19.138Z,102550.59
2019-03-26T23:11:48.201Z,102552.81
2019-03-26T23:14:17.262Z,102547.27
2019-03-26T23:16:46.302Z,102552.59
2019-03-26T23:19:15.369Z,102553.45
2019-03-26T23:21:44.410Z,102557.91
2019-03-26T23:24:13.505Z,102551.73
2019-03-26T23:26:42.577Z,102550.03
2019-03-26T23:29:12.002Z,102552.63
2019-03-26T23:31:41.098Z,102547.45
2019-03-26T23:34:10.195Z,102549.89
2019-03-26T23:36:39.253Z,102555.21
2019-03-26T23:39:08.333Z,102555.33
2019-03-26T23:41:39.696Z,102551.73
2019-03-26T23:44:08.157Z,102559.42
2019-03-26T23:46:37.222Z,102562.87
2019-03-26T23:49:06.303Z,102559.64
2019-03-26T23:51:35.385Z,102555.14
2019-03-26T23:54:04.432Z,102552.44
2019-03-26T23:56:33.548Z,102562.49
2019-03-26T23:59:02.624Z,102562.45
